Terminal Aerodrome Forecast
Issued by NWS Sioux Falls, SD

Home | Current Version | Previous Version | Text Only | Print | Product List | Glossary On
Versions: 1 2 3 4 5 6 7 8 9 10 11 12 13 14
815
FTUS43 KFSD 190521
TAFFSD
TAF
KFSD 190521Z 1906/2006 00000KT P6SM FEW250
     FM191400 18008KT P6SM SKC
     FM191800 18015G23KT P6SM FEW250
     FM192300 17010KT P6SM SKC
     FM200400 16008KT P6SM FEW250=

USA.gov is the U.S. government's official web portal to all federal, state and local government web resources and services.